Faaborg, Denmark
Current Conditions -  °F | °C
As of 2:20 PM on Sunday 21 Dec 2014 (Local Time) from ETGG Reporting Station
Light Rain Light Rain  
Wind Chill: 36°   Ceiling: 1500
Heat Index: 45°   Visibility: 6mi
Dew Point: 43°   Wind: 23mph
Humidity: 93%   Direction: 240°WSW
Pressure: 29.94"   Gusts: 36mph
Location:  55.1°N, 10.24°E
Report Text: ETGG 211320Z 24020G31KT 9000 -RA FEW009 BKN015 07/06 Q1014 WHT
Loading
Personal Weather Stations






























Interactive Weather Map New forecast layout! Learn more

10-Day Weather Forecast

Advertisements
Track Severe Weather on mobile